sensor_id;sensor_type;location;lat;lon;timestamp;P1;durP1;ratioP1;P2;durP2;ratioP2
29662;SDS011;16578;53.266;7.920;2022-12-18T00:01:03;77.82;;;35.90;;
29662;SDS011;16578;53.266;7.920;2022-12-18T00:03:34;82.95;;;34.33;;
29662;SDS011;16578;53.266;7.920;2022-12-18T00:06:00;82.70;;;35.85;;
29662;SDS011;16578;53.266;7.920;2022-12-18T00:08:27;82.95;;;35.92;;
29662;SDS011;16578;53.266;7.920;2022-12-18T00:10:52;90.57;;;37.13;;
29662;SDS011;16578;53.266;7.920;2022-12-18T00:13:18;87.78;;;36.25;;
29662;SDS011;16578;53.266;7.920;2022-12-18T00:15:44;92.07;;;41.17;;
29662;SDS011;16578;53.266;7.920;2022-12-18T00:18:09;87.45;;;40.00;;
29662;SDS011;16578;53.266;7.920;2022-12-18T00:20:35;85.57;;;37.55;;
29662;SDS011;16578;53.266;7.920;2022-12-18T00:23:02;88.93;;;36.60;;
29662;SDS011;16578;53.266;7.920;2022-12-18T00:25:27;83.45;;;35.97;;
29662;SDS011;16578;53.266;7.920;2022-12-18T00:27:53;86.45;;;39.17;;
29662;SDS011;16578;53.266;7.920;2022-12-18T00:30:18;86.20;;;37.13;;
29662;SDS011;16578;53.266;7.920;2022-12-18T00:32:44;90.32;;;39.83;;
29662;SDS011;16578;53.266;7.920;2022-12-18T00:35:09;87.55;;;39.03;;
29662;SDS011;16578;53.266;7.920;2022-12-18T00:37:35;84.10;;;37.35;;
29662;SDS011;16578;53.266;7.920;2022-12-18T00:40:01;82.72;;;34.53;;
29662;SDS011;16578;53.266;7.920;2022-12-18T00:42:27;77.22;;;34.70;;
29662;SDS011;16578;53.266;7.920;2022-12-18T00:45:11;85.47;;;37.28;;
29662;SDS011;16578;53.266;7.920;2022-12-18T00:47:37;89.97;;;36.83;;
29662;SDS011;16578;53.266;7.920;2022-12-18T00:50:02;86.30;;;37.83;;
29662;SDS011;16578;53.266;7.920;2022-12-18T00:52:28;87.35;;;36.10;;
29662;SDS011;16578;53.266;7.920;2022-12-18T00:54:54;80.85;;;34.65;;
29662;SDS011;16578;53.266;7.920;2022-12-18T00:57:19;86.97;;;36.38;;
29662;SDS011;16578;53.266;7.920;2022-12-18T00:59:45;87.72;;;37.28;;
29662;SDS011;16578;53.266;7.920;2022-12-18T01:02:13;84.78;;;36.92;;
29662;SDS011;16578;53.266;7.920;2022-12-18T01:04:39;85.07;;;35.40;;
29662;SDS011;16578;53.266;7.920;2022-12-18T01:07:04;84.63;;;35.22;;
29662;SDS011;16578;53.266;7.920;2022-12-18T01:09:30;86.97;;;37.05;;
29662;SDS011;16578;53.266;7.920;2022-12-18T01:11:55;84.50;;;36.03;;
29662;SDS011;16578;53.266;7.920;2022-12-18T01:14:21;84.38;;;36.10;;
29662;SDS011;16578;53.266;7.920;2022-12-18T01:16:47;86.63;;;35.97;;
29662;SDS011;16578;53.266;7.920;2022-12-18T01:19:13;87.32;;;35.45;;
29662;SDS011;16578;53.266;7.920;2022-12-18T01:21:38;84.13;;;35.60;;
29662;SDS011;16578;53.266;7.920;2022-12-18T01:24:04;82.95;;;34.75;;
29662;SDS011;16578;53.266;7.920;2022-12-18T01:26:30;81.32;;;35.80;;
29662;SDS011;16578;53.266;7.920;2022-12-18T01:28:56;87.85;;;38.38;;
29662;SDS011;16578;53.266;7.920;2022-12-18T01:31:23;85.78;;;39.30;;
29662;SDS011;16578;53.266;7.920;2022-12-18T01:33:51;84.63;;;36.65;;
29662;SDS011;16578;53.266;7.920;2022-12-18T01:36:21;81.53;;;36.72;;
29662;SDS011;16578;53.266;7.920;2022-12-18T01:38:49;87.05;;;37.35;;
29662;SDS011;16578;53.266;7.920;2022-12-18T01:41:16;86.00;;;37.47;;
29662;SDS011;16578;53.266;7.920;2022-12-18T01:43:53;87.47;;;38.63;;
29662;SDS011;16578;53.266;7.920;2022-12-18T01:46:22;90.95;;;37.92;;
29662;SDS011;16578;53.266;7.920;2022-12-18T01:48:53;88.28;;;37.13;;
29662;SDS011;16578;53.266;7.920;2022-12-18T01:51:21;86.53;;;36.08;;
29662;SDS011;16578;53.266;7.920;2022-12-18T01:53:47;86.93;;;35.85;;
29662;SDS011;16578;53.266;7.920;2022-12-18T01:56:14;84.43;;;35.78;;
29662;SDS011;16578;53.266;7.920;2022-12-18T02:01:21;87.28;;;36.35;;
29662;SDS011;16578;53.266;7.920;2022-12-18T02:03:48;85.63;;;37.40;;
29662;SDS011;16578;53.266;7.920;2022-12-18T02:06:26;88.78;;;36.08;;
29662;SDS011;16578;53.266;7.920;2022-12-18T02:16:43;77.75;;;33.65;;
29662;SDS011;16578;53.266;7.920;2022-12-18T02:22:26;82.15;;;35.95;;
29662;SDS011;16578;53.266;7.920;2022-12-18T02:27:37;86.70;;;36.95;;
29662;SDS011;16578;53.266;7.920;2022-12-18T02:30:04;83.00;;;36.25;;
29662;SDS011;16578;53.266;7.920;2022-12-18T02:32:31;87.53;;;36.95;;
29662;SDS011;16578;53.266;7.920;2022-12-18T02:35:03;82.28;;;35.45;;
29662;SDS011;16578;53.266;7.920;2022-12-18T02:37:30;80.28;;;33.88;;
29662;SDS011;16578;53.266;7.920;2022-12-18T02:39:58;78.07;;;33.65;;
29662;SDS011;16578;53.266;7.920;2022-12-18T02:42:25;85.80;;;36.03;;
29662;SDS011;16578;53.266;7.920;2022-12-18T02:44:55;85.78;;;34.28;;
29662;SDS011;16578;53.266;7.920;2022-12-18T02:47:22;77.13;;;32.83;;
29662;SDS011;16578;53.266;7.920;2022-12-18T02:49:57;79.32;;;32.08;;
29662;SDS011;16578;53.266;7.920;2022-12-18T03:00:25;71.75;;;30.05;;
29662;SDS011;16578;53.266;7.920;2022-12-18T03:02:59;67.70;;;29.63;;
29662;SDS011;16578;53.266;7.920;2022-12-18T03:05:33;64.43;;;28.25;;
29662;SDS011;16578;53.266;7.920;2022-12-18T03:10:37;67.20;;;29.08;;
29662;SDS011;16578;53.266;7.920;2022-12-18T03:13:12;68.95;;;30.77;;
29662;SDS011;16578;53.266;7.920;2022-12-18T03:15:48;70.18;;;29.17;;
29662;SDS011;16578;53.266;7.920;2022-12-18T03:18:19;63.35;;;27.90;;
29662;SDS011;16578;53.266;7.920;2022-12-18T03:20:49;62.72;;;27.60;;
29662;SDS011;16578;53.266;7.920;2022-12-18T03:23:20;63.33;;;28.85;;
29662;SDS011;16578;53.266;7.920;2022-12-18T03:25:47;63.40;;;27.98;;
29662;SDS011;16578;53.266;7.920;2022-12-18T03:28:16;62.95;;;26.50;;
29662;SDS011;16578;53.266;7.920;2022-12-18T03:30:47;52.10;;;24.63;;
29662;SDS011;16578;53.266;7.920;2022-12-18T03:33:19;54.30;;;23.88;;
29662;SDS011;16578;53.266;7.920;2022-12-18T03:35:48;56.28;;;25.00;;
29662;SDS011;16578;53.266;7.920;2022-12-18T03:38:14;54.03;;;23.90;;
29662;SDS011;16578;53.266;7.920;2022-12-18T03:46:22;54.00;;;22.05;;
29662;SDS011;16578;53.266;7.920;2022-12-18T03:49:22;55.42;;;25.08;;
29662;SDS011;16578;53.266;7.920;2022-12-18T03:51:52;48.75;;;23.95;;
29662;SDS011;16578;53.266;7.920;2022-12-18T03:54:30;53.85;;;25.05;;
29662;SDS011;16578;53.266;7.920;2022-12-18T03:57:00;53.73;;;24.97;;
29662;SDS011;16578;53.266;7.920;2022-12-18T03:59:31;51.55;;;25.20;;
29662;SDS011;16578;53.266;7.920;2022-12-18T04:01:58;46.92;;;23.67;;
29662;SDS011;16578;53.266;7.920;2022-12-18T04:04:26;55.20;;;24.35;;
29662;SDS011;16578;53.266;7.920;2022-12-18T04:06:53;51.70;;;21.55;;
29662;SDS011;16578;53.266;7.920;2022-12-18T04:09:19;52.85;;;23.25;;
29662;SDS011;16578;53.266;7.920;2022-12-18T04:11:46;48.80;;;22.17;;
29662;SDS011;16578;53.266;7.920;2022-12-18T04:14:12;47.20;;;20.70;;
29662;SDS011;16578;53.266;7.920;2022-12-18T04:16:37;46.47;;;23.23;;
29662;SDS011;16578;53.266;7.920;2022-12-18T04:19:03;46.65;;;21.73;;
29662;SDS011;16578;53.266;7.920;2022-12-18T04:21:29;44.33;;;22.50;;
29662;SDS011;16578;53.266;7.920;2022-12-18T04:23:55;52.47;;;24.80;;
29662;SDS011;16578;53.266;7.920;2022-12-18T04:26:21;53.70;;;22.60;;
29662;SDS011;16578;53.266;7.920;2022-12-18T04:28:46;49.40;;;23.05;;
29662;SDS011;16578;53.266;7.920;2022-12-18T04:31:12;52.15;;;24.45;;
29662;SDS011;16578;53.266;7.920;2022-12-18T04:33:38;50.63;;;23.77;;
29662;SDS011;16578;53.266;7.920;2022-12-18T04:36:03;49.97;;;22.65;;
29662;SDS011;16578;53.266;7.920;2022-12-18T04:38:29;46.70;;;21.77;;
29662;SDS011;16578;53.266;7.920;2022-12-18T04:40:55;48.03;;;20.70;;
29662;SDS011;16578;53.266;7.920;2022-12-18T04:43:20;45.42;;;20.92;;
29662;SDS011;16578;53.266;7.920;2022-12-18T04:45:46;43.85;;;21.58;;
29662;SDS011;16578;53.266;7.920;2022-12-18T04:48:11;40.33;;;18.88;;
29662;SDS011;16578;53.266;7.920;2022-12-18T04:50:37;44.28;;;20.88;;
29662;SDS011;16578;53.266;7.920;2022-12-18T04:53:03;44.17;;;20.30;;
29662;SDS011;16578;53.266;7.920;2022-12-18T04:55:29;49.58;;;23.50;;
29662;SDS011;16578;53.266;7.920;2022-12-18T04:57:54;44.88;;;20.83;;
29662;SDS011;16578;53.266;7.920;2022-12-18T05:00:20;44.70;;;21.73;;
29662;SDS011;16578;53.266;7.920;2022-12-18T05:02:46;46.20;;;21.13;;
29662;SDS011;16578;53.266;7.920;2022-12-18T05:05:11;44.28;;;19.92;;
29662;SDS011;16578;53.266;7.920;2022-12-18T05:07:37;45.50;;;20.67;;
29662;SDS011;16578;53.266;7.920;2022-12-18T05:10:06;42.50;;;19.55;;
29662;SDS011;16578;53.266;7.920;2022-12-18T05:12:32;40.90;;;19.08;;
29662;SDS011;16578;53.266;7.920;2022-12-18T05:14:57;41.60;;;19.67;;
29662;SDS011;16578;53.266;7.920;2022-12-18T05:17:23;44.25;;;20.67;;
29662;SDS011;16578;53.266;7.920;2022-12-18T05:19:48;47.22;;;20.25;;
29662;SDS011;16578;53.266;7.920;2022-12-18T05:22:14;42.10;;;18.38;;
29662;SDS011;16578;53.266;7.920;2022-12-18T05:24:42;37.75;;;16.90;;
29662;SDS011;16578;53.266;7.920;2022-12-18T05:27:08;38.63;;;18.10;;
29662;SDS011;16578;53.266;7.920;2022-12-18T05:29:33;42.33;;;18.83;;
29662;SDS011;16578;53.266;7.920;2022-12-18T05:31:59;38.90;;;18.65;;
29662;SDS011;16578;53.266;7.920;2022-12-18T05:34:24;48.28;;;21.88;;
29662;SDS011;16578;53.266;7.920;2022-12-18T05:36:50;44.00;;;20.45;;
29662;SDS011;16578;53.266;7.920;2022-12-18T05:39:15;39.05;;;19.60;;
29662;SDS011;16578;53.266;7.920;2022-12-18T05:41:41;38.03;;;17.38;;
29662;SDS011;16578;53.266;7.920;2022-12-18T05:44:06;38.78;;;20.83;;
29662;SDS011;16578;53.266;7.920;2022-12-18T05:46:32;44.67;;;19.30;;
29662;SDS011;16578;53.266;7.920;2022-12-18T05:49:00;34.75;;;16.48;;
29662;SDS011;16578;53.266;7.920;2022-12-18T05:51:27;39.75;;;18.58;;
29662;SDS011;16578;53.266;7.920;2022-12-18T05:53:52;33.88;;;16.33;;
29662;SDS011;16578;53.266;7.920;2022-12-18T05:56:20;34.55;;;16.55;;
29662;SDS011;16578;53.266;7.920;2022-12-18T05:58:47;31.63;;;15.07;;
29662;SDS011;16578;53.266;7.920;2022-12-18T06:01:17;35.08;;;15.32;;
29662;SDS011;16578;53.266;7.920;2022-12-18T06:03:45;35.25;;;16.15;;
29662;SDS011;16578;53.266;7.920;2022-12-18T06:06:14;31.67;;;16.10;;
29662;SDS011;16578;53.266;7.920;2022-12-18T06:08:44;32.53;;;14.77;;
29662;SDS011;16578;53.266;7.920;2022-12-18T06:11:10;34.03;;;15.45;;
29662;SDS011;16578;53.266;7.920;2022-12-18T06:13:36;32.13;;;17.02;;
29662;SDS011;16578;53.266;7.920;2022-12-18T06:16:03;34.50;;;15.43;;
29662;SDS011;16578;53.266;7.920;2022-12-18T06:18:30;32.95;;;14.98;;
29662;SDS011;16578;53.266;7.920;2022-12-18T06:20:56;36.95;;;17.00;;
29662;SDS011;16578;53.266;7.920;2022-12-18T06:23:22;33.30;;;16.23;;
29662;SDS011;16578;53.266;7.920;2022-12-18T06:25:48;36.35;;;17.40;;
29662;SDS011;16578;53.266;7.920;2022-12-18T06:28:14;34.35;;;16.67;;
29662;SDS011;16578;53.266;7.920;2022-12-18T06:30:40;35.58;;;16.67;;
29662;SDS011;16578;53.266;7.920;2022-12-18T06:33:09;31.90;;;16.08;;
29662;SDS011;16578;53.266;7.920;2022-12-18T06:35:34;28.77;;;15.13;;
29662;SDS011;16578;53.266;7.920;2022-12-18T06:38:01;32.13;;;17.17;;
29662;SDS011;16578;53.266;7.920;2022-12-18T06:40:27;35.35;;;16.60;;
29662;SDS011;16578;53.266;7.920;2022-12-18T06:42:53;29.17;;;15.30;;
29662;SDS011;16578;53.266;7.920;2022-12-18T06:45:18;34.35;;;16.23;;
29662;SDS011;16578;53.266;7.920;2022-12-18T06:47:44;35.83;;;16.40;;
29662;SDS011;16578;53.266;7.920;2022-12-18T06:50:10;29.02;;;13.40;;
29662;SDS011;16578;53.266;7.920;2022-12-18T06:52:36;28.40;;;15.65;;
29662;SDS011;16578;53.266;7.920;2022-12-18T06:55:01;26.92;;;14.80;;
29662;SDS011;16578;53.266;7.920;2022-12-18T06:57:28;30.88;;;15.32;;
29662;SDS011;16578;53.266;7.920;2022-12-18T06:59:53;29.52;;;13.32;;
29662;SDS011;16578;53.266;7.920;2022-12-18T07:02:19;25.38;;;13.30;;
29662;SDS011;16578;53.266;7.920;2022-12-18T07:04:45;23.10;;;13.13;;
29662;SDS011;16578;53.266;7.920;2022-12-18T07:07:10;25.42;;;13.55;;
29662;SDS011;16578;53.266;7.920;2022-12-18T07:09:36;28.20;;;14.43;;
29662;SDS011;16578;53.266;7.920;2022-12-18T07:12:01;23.90;;;12.80;;
29662;SDS011;16578;53.266;7.920;2022-12-18T07:14:27;36.97;;;15.48;;
29662;SDS011;16578;53.266;7.920;2022-12-18T07:16:53;28.65;;;13.88;;
29662;SDS011;16578;53.266;7.920;2022-12-18T07:19:18;25.35;;;13.23;;
29662;SDS011;16578;53.266;7.920;2022-12-18T07:21:44;26.63;;;13.02;;
29662;SDS011;16578;53.266;7.920;2022-12-18T07:24:10;26.65;;;13.45;;
29662;SDS011;16578;53.266;7.920;2022-12-18T07:26:35;22.67;;;13.48;;
29662;SDS011;16578;53.266;7.920;2022-12-18T07:29:01;24.05;;;12.63;;
29662;SDS011;16578;53.266;7.920;2022-12-18T07:31:27;28.67;;;13.77;;
29662;SDS011;16578;53.266;7.920;2022-12-18T07:33:53;24.02;;;13.15;;
29662;SDS011;16578;53.266;7.920;2022-12-18T07:36:18;25.90;;;13.60;;
29662;SDS011;16578;53.266;7.920;2022-12-18T07:38:46;22.05;;;12.50;;
29662;SDS011;16578;53.266;7.920;2022-12-18T07:43:39;21.50;;;11.77;;
29662;SDS011;16578;53.266;7.920;2022-12-18T07:46:05;21.50;;;11.85;;
29662;SDS011;16578;53.266;7.920;2022-12-18T07:48:31;25.02;;;12.35;;
29662;SDS011;16578;53.266;7.920;2022-12-18T07:50:58;21.92;;;11.90;;
29662;SDS011;16578;53.266;7.920;2022-12-18T07:53:24;23.00;;;11.73;;
29662;SDS011;16578;53.266;7.920;2022-12-18T07:55:54;20.67;;;12.00;;
29662;SDS011;16578;53.266;7.920;2022-12-18T07:58:21;22.05;;;11.77;;
29662;SDS011;16578;53.266;7.920;2022-12-18T08:00:47;24.90;;;13.52;;
29662;SDS011;16578;53.266;7.920;2022-12-18T08:03:13;23.13;;;11.80;;
29662;SDS011;16578;53.266;7.920;2022-12-18T08:05:39;22.35;;;12.15;;
29662;SDS011;16578;53.266;7.920;2022-12-18T08:08:05;28.48;;;13.75;;
29662;SDS011;16578;53.266;7.920;2022-12-18T08:10:30;26.60;;;13.35;;
29662;SDS011;16578;53.266;7.920;2022-12-18T08:12:56;28.05;;;14.32;;
29662;SDS011;16578;53.266;7.920;2022-12-18T08:15:21;26.85;;;13.50;;
29662;SDS011;16578;53.266;7.920;2022-12-18T08:17:47;25.77;;;13.43;;
29662;SDS011;16578;53.266;7.920;2022-12-18T08:20:12;27.08;;;13.73;;
29662;SDS011;16578;53.266;7.920;2022-12-18T08:22:39;23.75;;;13.13;;
29662;SDS011;16578;53.266;7.920;2022-12-18T08:27:33;26.08;;;11.73;;
29662;SDS011;16578;53.266;7.920;2022-12-18T08:29:59;17.83;;;10.57;;
29662;SDS011;16578;53.266;7.920;2022-12-18T08:32:25;22.83;;;11.55;;
29662;SDS011;16578;53.266;7.920;2022-12-18T08:34:51;22.38;;;12.15;;
29662;SDS011;16578;53.266;7.920;2022-12-18T08:37:17;22.70;;;12.32;;
29662;SDS011;16578;53.266;7.920;2022-12-18T08:39:43;27.17;;;12.38;;
29662;SDS011;16578;53.266;7.920;2022-12-18T08:42:08;20.25;;;11.07;;
29662;SDS011;16578;53.266;7.920;2022-12-18T08:44:52;22.80;;;12.82;;
29662;SDS011;16578;53.266;7.920;2022-12-18T08:47:18;21.77;;;12.63;;
29662;SDS011;16578;53.266;7.920;2022-12-18T08:49:43;23.17;;;11.93;;
29662;SDS011;16578;53.266;7.920;2022-12-18T08:52:09;21.00;;;11.25;;
29662;SDS011;16578;53.266;7.920;2022-12-18T08:54:34;20.23;;;12.05;;
29662;SDS011;16578;53.266;7.920;2022-12-18T08:57:00;21.85;;;11.88;;
29662;SDS011;16578;53.266;7.920;2022-12-18T08:59:25;21.88;;;12.30;;
29662;SDS011;16578;53.266;7.920;2022-12-18T09:01:53;21.33;;;12.85;;
29662;SDS011;16578;53.266;7.920;2022-12-18T09:04:19;24.88;;;13.43;;
29662;SDS011;16578;53.266;7.920;2022-12-18T09:06:44;22.83;;;12.20;;
29662;SDS011;16578;53.266;7.920;2022-12-18T09:09:10;21.35;;;13.30;;
29662;SDS011;16578;53.266;7.920;2022-12-18T09:11:36;20.52;;;12.90;;
29662;SDS011;16578;53.266;7.920;2022-12-18T09:14:02;23.35;;;13.02;;
29662;SDS011;16578;53.266;7.920;2022-12-18T09:16:28;19.25;;;12.13;;
29662;SDS011;16578;53.266;7.920;2022-12-18T09:18:54;20.73;;;12.60;;
29662;SDS011;16578;53.266;7.920;2022-12-18T09:21:24;21.88;;;11.50;;
29662;SDS011;16578;53.266;7.920;2022-12-18T09:23:52;20.40;;;11.90;;
29662;SDS011;16578;53.266;7.920;2022-12-18T09:26:20;18.55;;;11.98;;
29662;SDS011;16578;53.266;7.920;2022-12-18T09:28:46;22.10;;;12.20;;
29662;SDS011;16578;53.266;7.920;2022-12-18T09:31:12;19.80;;;11.50;;
29662;SDS011;16578;53.266;7.920;2022-12-18T09:33:38;18.58;;;12.02;;
29662;SDS011;16578;53.266;7.920;2022-12-18T09:36:04;21.65;;;12.25;;
29662;SDS011;16578;53.266;7.920;2022-12-18T09:38:31;21.50;;;11.32;;
29662;SDS011;16578;53.266;7.920;2022-12-18T09:44:44;16.60;;;10.00;;
29662;SDS011;16578;53.266;7.920;2022-12-18T09:46:46;20.50;;;11.73;;
29662;SDS011;16578;53.266;7.920;2022-12-18T09:49:17;20.13;;;11.30;;
29662;SDS011;16578;53.266;7.920;2022-12-18T09:51:48;16.67;;;10.93;;
29662;SDS011;16578;53.266;7.920;2022-12-18T09:54:22;22.00;;;12.32;;
29662;SDS011;16578;53.266;7.920;2022-12-18T09:56:51;18.75;;;12.45;;
29662;SDS011;16578;53.266;7.920;2022-12-18T09:59:33;20.02;;;11.85;;
29662;SDS011;16578;53.266;7.920;2022-12-18T10:02:15;18.20;;;11.07;;
29662;SDS011;16578;53.266;7.920;2022-12-18T10:05:34;19.42;;;11.55;;
29662;SDS011;16578;53.266;7.920;2022-12-18T10:13:07;22.23;;;11.27;;
29662;SDS011;16578;53.266;7.920;2022-12-18T10:26:36;20.13;;;12.35;;
29662;SDS011;16578;53.266;7.920;2022-12-18T10:29:03;18.05;;;11.88;;
29662;SDS011;16578;53.266;7.920;2022-12-18T10:31:35;18.38;;;12.20;;
29662;SDS011;16578;53.266;7.920;2022-12-18T10:34:01;18.60;;;10.88;;
29662;SDS011;16578;53.266;7.920;2022-12-18T10:36:26;21.23;;;11.93;;
29662;SDS011;16578;53.266;7.920;2022-12-18T10:38:52;16.20;;;11.10;;
29662;SDS011;16578;53.266;7.920;2022-12-18T10:43:48;17.40;;;10.80;;
29662;SDS011;16578;53.266;7.920;2022-12-18T10:46:33;18.65;;;11.10;;
29662;SDS011;16578;53.266;7.920;2022-12-18T10:48:59;18.13;;;11.70;;
29662;SDS011;16578;53.266;7.920;2022-12-18T10:51:29;18.60;;;11.65;;
29662;SDS011;16578;53.266;7.920;2022-12-18T10:54:04;18.08;;;11.30;;
29662;SDS011;16578;53.266;7.920;2022-12-18T10:56:37;16.80;;;11.13;;
29662;SDS011;16578;53.266;7.920;2022-12-18T10:59:05;17.85;;;11.48;;
29662;SDS011;16578;53.266;7.920;2022-12-18T11:01:45;19.20;;;12.30;;
29662;SDS011;16578;53.266;7.920;2022-12-18T11:04:30;16.75;;;12.32;;
29662;SDS011;16578;53.266;7.920;2022-12-18T11:06:57;17.52;;;11.70;;
29662;SDS011;16578;53.266;7.920;2022-12-18T11:09:29;16.80;;;10.98;;
29662;SDS011;16578;53.266;7.920;2022-12-18T11:11:58;15.85;;;10.30;;
29662;SDS011;16578;53.266;7.920;2022-12-18T11:14:27;18.40;;;11.02;;
29662;SDS011;16578;53.266;7.920;2022-12-18T11:17:18;17.85;;;10.52;;
29662;SDS011;16578;53.266;7.920;2022-12-18T11:19:46;16.88;;;11.18;;
29662;SDS011;16578;53.266;7.920;2022-12-18T11:22:20;17.25;;;10.68;;
29662;SDS011;16578;53.266;7.920;2022-12-18T11:25:02;16.45;;;10.07;;
29662;SDS011;16578;53.266;7.920;2022-12-18T11:27:50;16.10;;;10.05;;
29662;SDS011;16578;53.266;7.920;2022-12-18T11:32:48;15.18;;;10.65;;
29662;SDS011;16578;53.266;7.920;2022-12-18T11:38:12;15.45;;;9.70;;
29662;SDS011;16578;53.266;7.920;2022-12-18T11:40:42;17.17;;;11.20;;
29662;SDS011;16578;53.266;7.920;2022-12-18T11:46:16;16.70;;;10.90;;
29662;SDS011;16578;53.266;7.920;2022-12-18T11:48:56;17.13;;;11.50;;
29662;SDS011;16578;53.266;7.920;2022-12-18T11:51:33;20.23;;;11.77;;
29662;SDS011;16578;53.266;7.920;2022-12-18T11:54:07;18.15;;;11.45;;
29662;SDS011;16578;53.266;7.920;2022-12-18T11:57:02;17.00;;;11.18;;
29662;SDS011;16578;53.266;7.920;2022-12-18T12:07:38;18.95;;;11.00;;
29662;SDS011;16578;53.266;7.920;2022-12-18T12:15:55;16.83;;;10.70;;
29662;SDS011;16578;53.266;7.920;2022-12-18T12:24:21;18.15;;;11.90;;
29662;SDS011;16578;53.266;7.920;2022-12-18T12:27:07;17.33;;;11.98;;
29662;SDS011;16578;53.266;7.920;2022-12-18T12:29:40;17.52;;;10.38;;
29662;SDS011;16578;53.266;7.920;2022-12-18T12:35:09;19.90;;;12.23;;
29662;SDS011;16578;53.266;7.920;2022-12-18T12:40:17;18.17;;;11.48;;
29662;SDS011;16578;53.266;7.920;2022-12-18T12:50:56;13.07;;;9.98;;
29662;SDS011;16578;53.266;7.920;2022-12-18T12:53:26;14.02;;;9.60;;
29662;SDS011;16578;53.266;7.920;2022-12-18T12:55:57;15.07;;;10.18;;
29662;SDS011;16578;53.266;7.920;2022-12-18T13:04:27;15.57;;;9.60;;
29662;SDS011;16578;53.266;7.920;2022-12-18T13:07:06;17.98;;;10.32;;
29662;SDS011;16578;53.266;7.920;2022-12-18T13:10:22;16.13;;;9.82;;
29662;SDS011;16578;53.266;7.920;2022-12-18T13:15:34;17.52;;;10.05;;
29662;SDS011;16578;53.266;7.920;2022-12-18T13:20:34;16.88;;;9.90;;
29662;SDS011;16578;53.266;7.920;2022-12-18T13:23:17;17.60;;;10.45;;
29662;SDS011;16578;53.266;7.920;2022-12-18T13:30:58;12.50;;;9.15;;
29662;SDS011;16578;53.266;7.920;2022-12-18T13:36:02;11.90;;;8.27;;
29662;SDS011;16578;53.266;7.920;2022-12-18T13:38:38;12.55;;;8.73;;
29662;SDS011;16578;53.266;7.920;2022-12-18T13:43:43;12.00;;;8.77;;
29662;SDS011;16578;53.266;7.920;2022-12-18T13:46:18;12.35;;;9.20;;
29662;SDS011;16578;53.266;7.920;2022-12-18T13:48:57;13.32;;;8.90;;
29662;SDS011;16578;53.266;7.920;2022-12-18T13:51:24;11.27;;;8.57;;
29662;SDS011;16578;53.266;7.920;2022-12-18T13:53:52;16.40;;;9.82;;
29662;SDS011;16578;53.266;7.920;2022-12-18T13:56:24;16.17;;;9.68;;
29662;SDS011;16578;53.266;7.920;2022-12-18T14:01:36;13.18;;;9.20;;
29662;SDS011;16578;53.266;7.920;2022-12-18T14:04:16;14.73;;;10.27;;
29662;SDS011;16578;53.266;7.920;2022-12-18T14:06:58;18.60;;;10.57;;
29662;SDS011;16578;53.266;7.920;2022-12-18T14:09:30;30.50;;;12.15;;
29662;SDS011;16578;53.266;7.920;2022-12-18T14:11:59;16.00;;;10.48;;
29662;SDS011;16578;53.266;7.920;2022-12-18T14:14:45;17.40;;;11.07;;
29662;SDS011;16578;53.266;7.920;2022-12-18T14:19:43;12.75;;;9.63;;
29662;SDS011;16578;53.266;7.920;2022-12-18T14:22:19;14.75;;;9.73;;
29662;SDS011;16578;53.266;7.920;2022-12-18T14:24:47;16.10;;;10.18;;
29662;SDS011;16578;53.266;7.920;2022-12-18T14:27:29;13.40;;;9.55;;
29662;SDS011;16578;53.266;7.920;2022-12-18T14:29:54;16.38;;;10.60;;
29662;SDS011;16578;53.266;7.920;2022-12-18T14:32:20;14.73;;;10.18;;
29662;SDS011;16578;53.266;7.920;2022-12-18T14:34:50;15.15;;;9.57;;
29662;SDS011;16578;53.266;7.920;2022-12-18T14:37:20;12.85;;;9.95;;
29662;SDS011;16578;53.266;7.920;2022-12-18T14:39:54;14.70;;;9.82;;
29662;SDS011;16578;53.266;7.920;2022-12-18T14:42:21;13.13;;;9.23;;
29662;SDS011;16578;53.266;7.920;2022-12-18T14:44:47;14.38;;;8.98;;
29662;SDS011;16578;53.266;7.920;2022-12-18T14:47:14;20.02;;;10.55;;
29662;SDS011;16578;53.266;7.920;2022-12-18T14:49:40;10.77;;;8.68;;
29662;SDS011;16578;53.266;7.920;2022-12-18T14:52:13;12.13;;;8.20;;
29662;SDS011;16578;53.266;7.920;2022-12-18T14:54:51;13.95;;;8.95;;
29662;SDS011;16578;53.266;7.920;2022-12-18T14:57:20;12.85;;;8.70;;
29662;SDS011;16578;53.266;7.920;2022-12-18T14:59:51;13.73;;;9.45;;
29662;SDS011;16578;53.266;7.920;2022-12-18T15:05:04;14.05;;;8.20;;
29662;SDS011;16578;53.266;7.920;2022-12-18T15:07:50;11.23;;;8.13;;
29662;SDS011;16578;53.266;7.920;2022-12-18T15:12:48;13.07;;;8.45;;
29662;SDS011;16578;53.266;7.920;2022-12-18T15:25:45;16.75;;;9.23;;
29662;SDS011;16578;53.266;7.920;2022-12-18T15:28:16;13.00;;;7.73;;
29662;SDS011;16578;53.266;7.920;2022-12-18T15:33:29;16.90;;;11.90;;
29662;SDS011;16578;53.266;7.920;2022-12-18T15:35:58;15.00;;;10.57;;
29662;SDS011;16578;53.266;7.920;2022-12-18T15:38:24;15.27;;;10.52;;
29662;SDS011;16578;53.266;7.920;2022-12-18T15:40:50;24.13;;;15.43;;
29662;SDS011;16578;53.266;7.920;2022-12-18T15:43:16;24.42;;;14.40;;
29662;SDS011;16578;53.266;7.920;2022-12-18T15:46:20;19.85;;;11.80;;
29662;SDS011;16578;53.266;7.920;2022-12-18T15:48:49;18.17;;;12.35;;
29662;SDS011;16578;53.266;7.920;2022-12-18T15:51:26;22.23;;;13.52;;
29662;SDS011;16578;53.266;7.920;2022-12-18T15:53:56;19.92;;;11.02;;
29662;SDS011;16578;53.266;7.920;2022-12-18T15:59:26;14.98;;;9.13;;
29662;SDS011;16578;53.266;7.920;2022-12-18T16:01:52;21.42;;;12.25;;
29662;SDS011;16578;53.266;7.920;2022-12-18T16:04:18;17.83;;;11.57;;
29662;SDS011;16578;53.266;7.920;2022-12-18T16:09:12;14.25;;;9.32;;
29662;SDS011;16578;53.266;7.920;2022-12-18T16:11:39;18.13;;;10.45;;
29662;SDS011;16578;53.266;7.920;2022-12-18T16:14:18;22.50;;;11.65;;
29662;SDS011;16578;53.266;7.920;2022-12-18T16:16:44;18.48;;;11.00;;
29662;SDS011;16578;53.266;7.920;2022-12-18T16:19:11;19.40;;;11.55;;
29662;SDS011;16578;53.266;7.920;2022-12-18T16:21:37;17.88;;;11.15;;
29662;SDS011;16578;53.266;7.920;2022-12-18T16:24:03;20.52;;;10.70;;
29662;SDS011;16578;53.266;7.920;2022-12-18T16:26:28;19.05;;;10.77;;
29662;SDS011;16578;53.266;7.920;2022-12-18T16:28:54;19.73;;;10.65;;
29662;SDS011;16578;53.266;7.920;2022-12-18T16:31:20;16.20;;;10.10;;
29662;SDS011;16578;53.266;7.920;2022-12-18T16:33:46;17.13;;;9.98;;
29662;SDS011;16578;53.266;7.920;2022-12-18T16:36:12;20.27;;;11.13;;
29662;SDS011;16578;53.266;7.920;2022-12-18T16:38:37;21.90;;;13.30;;
29662;SDS011;16578;53.266;7.920;2022-12-18T16:41:06;16.15;;;10.25;;
29662;SDS011;16578;53.266;7.920;2022-12-18T16:43:58;12.18;;;9.00;;
29662;SDS011;16578;53.266;7.920;2022-12-18T16:46:24;16.52;;;8.85;;
29662;SDS011;16578;53.266;7.920;2022-12-18T16:48:50;14.95;;;8.35;;
29662;SDS011;16578;53.266;7.920;2022-12-18T16:51:16;13.57;;;8.70;;
29662;SDS011;16578;53.266;7.920;2022-12-18T16:53:41;13.38;;;8.73;;
29662;SDS011;16578;53.266;7.920;2022-12-18T16:56:07;13.93;;;9.07;;
29662;SDS011;16578;53.266;7.920;2022-12-18T16:58:32;14.13;;;8.50;;
29662;SDS011;16578;53.266;7.920;2022-12-18T17:00:58;12.50;;;8.35;;
29662;SDS011;16578;53.266;7.920;2022-12-18T17:03:24;12.90;;;8.38;;
29662;SDS011;16578;53.266;7.920;2022-12-18T17:05:50;11.75;;;7.25;;